Weather at Athens Eleftherios Venizelos International Airport

Public forecast

Using degrees Celsius for public forecast. Weather courtesy of forecast.io.

Current aviation weather report (METAR) for Athens Eleftherios Venizelos International Airport

2023/01/30 00:50 (retrieved 44 minutes ago)

LGAV 300050Z 02009KT 9999 FEW020 BKN050 06/03 Q1018 NOSIG

Closest aviation forecast (TAF) to Athens Eleftherios Venizelos International Airport

Forecast is more than 6 hours old.

Closest forecast is Crotone Airport, 328.8 nm (609.0 km) WNW.

2023/01/29 18:25 (retrieved 7 hours ago)

TAF LIBC 291915Z 2918/3018 CNL